sensor_id;sensor_type;location;lat;lon;timestamp;P1;durP1;ratioP1;P2;durP2;ratioP2
22191;SDS011;11261;52.456;10.850;2022-09-21T00:01:11;2.13;;;1.20;;
22191;SDS011;11261;52.456;10.850;2022-09-21T00:03:41;3.20;;;1.35;;
22191;SDS011;11261;52.456;10.850;2022-09-21T00:06:10;1.98;;;1.48;;
22191;SDS011;11261;52.456;10.850;2022-09-21T00:08:40;1.50;;;1.40;;
22191;SDS011;11261;52.456;10.850;2022-09-21T00:11:10;3.97;;;1.85;;
22191;SDS011;11261;52.456;10.850;2022-09-21T00:13:40;2.17;;;1.23;;
22191;SDS011;11261;52.456;10.850;2022-09-21T00:16:12;3.15;;;1.38;;
22191;SDS011;11261;52.456;10.850;2022-09-21T00:18:41;2.05;;;1.60;;
22191;SDS011;11261;52.456;10.850;2022-09-21T00:21:11;2.08;;;1.30;;
22191;SDS011;11261;52.456;10.850;2022-09-21T00:23:41;2.80;;;1.30;;
22191;SDS011;11261;52.456;10.850;2022-09-21T00:26:11;2.00;;;1.08;;
22191;SDS011;11261;52.456;10.850;2022-09-21T00:28:41;3.08;;;1.50;;
22191;SDS011;11261;52.456;10.850;2022-09-21T00:31:11;2.58;;;1.27;;
22191;SDS011;11261;52.456;10.850;2022-09-21T00:33:41;3.28;;;1.35;;
22191;SDS011;11261;52.456;10.850;2022-09-21T00:36:10;3.22;;;1.42;;
22191;SDS011;11261;52.456;10.850;2022-09-21T00:38:39;1.95;;;1.38;;
22191;SDS011;11261;52.456;10.850;2022-09-21T00:41:08;1.50;;;1.40;;
22191;SDS011;11261;52.456;10.850;2022-09-21T00:43:41;3.92;;;1.40;;
22191;SDS011;11261;52.456;10.850;2022-09-21T00:46:19;4.28;;;1.80;;
22191;SDS011;11261;52.456;10.850;2022-09-21T00:48:53;1.70;;;1.50;;
22191;SDS011;11261;52.456;10.850;2022-09-21T00:51:22;1.63;;;1.40;;
22191;SDS011;11261;52.456;10.850;2022-09-21T00:53:50;3.65;;;1.60;;
22191;SDS011;11261;52.456;10.850;2022-09-21T00:56:22;2.22;;;1.55;;
22191;SDS011;11261;52.456;10.850;2022-09-21T00:58:52;1.90;;;1.58;;
22191;SDS011;11261;52.456;10.850;2022-09-21T01:01:22;1.83;;;1.38;;
22191;SDS011;11261;52.456;10.850;2022-09-21T01:03:50;2.92;;;1.40;;
22191;SDS011;11261;52.456;10.850;2022-09-21T01:06:22;4.28;;;1.75;;
22191;SDS011;11261;52.456;10.850;2022-09-21T01:08:52;2.08;;;1.58;;
22191;SDS011;11261;52.456;10.850;2022-09-21T01:11:26;2.47;;;1.80;;
22191;SDS011;11261;52.456;10.850;2022-09-21T01:14:13;3.22;;;1.60;;
22191;SDS011;11261;52.456;10.850;2022-09-21T01:16:54;2.10;;;1.52;;
22191;SDS011;11261;52.456;10.850;2022-09-21T01:19:34;3.75;;;1.40;;
22191;SDS011;11261;52.456;10.850;2022-09-21T01:22:21;2.20;;;1.65;;
22191;SDS011;11261;52.456;10.850;2022-09-21T01:25:00;2.60;;;1.60;;
22191;SDS011;11261;52.456;10.850;2022-09-21T01:27:38;3.67;;;1.45;;
22191;SDS011;11261;52.456;10.850;2022-09-21T01:30:28;3.92;;;1.63;;
22191;SDS011;11261;52.456;10.850;2022-09-21T01:33:02;1.80;;;1.50;;
22191;SDS011;11261;52.456;10.850;2022-09-21T01:35:36;4.20;;;1.70;;
22191;SDS011;11261;52.456;10.850;2022-09-21T01:38:09;2.55;;;1.73;;
22191;SDS011;11261;52.456;10.850;2022-09-21T01:40:41;1.55;;;1.35;;
22191;SDS011;11261;52.456;10.850;2022-09-21T01:43:13;4.00;;;1.58;;
22191;SDS011;11261;52.456;10.850;2022-09-21T01:45:48;2.88;;;1.63;;
22191;SDS011;11261;52.456;10.850;2022-09-21T01:48:20;1.73;;;1.50;;
22191;SDS011;11261;52.456;10.850;2022-09-21T01:50:52;2.72;;;1.42;;
22191;SDS011;11261;52.456;10.850;2022-09-21T01:53:24;2.67;;;1.50;;
22191;SDS011;11261;52.456;10.850;2022-09-21T01:55:58;4.35;;;1.70;;
22191;SDS011;11261;52.456;10.850;2022-09-21T01:58:32;4.15;;;2.03;;
22191;SDS011;11261;52.456;10.850;2022-09-21T02:01:07;3.00;;;1.92;;
22191;SDS011;11261;52.456;10.850;2022-09-21T02:03:42;2.78;;;1.50;;
22191;SDS011;11261;52.456;10.850;2022-09-21T02:06:11;3.40;;;1.48;;
22191;SDS011;11261;52.456;10.850;2022-09-21T02:08:41;1.90;;;1.27;;
22191;SDS011;11261;52.456;10.850;2022-09-21T02:11:10;1.90;;;1.48;;
22191;SDS011;11261;52.456;10.850;2022-09-21T02:13:39;3.60;;;1.60;;
22191;SDS011;11261;52.456;10.850;2022-09-21T02:16:15;3.47;;;1.67;;
22191;SDS011;11261;52.456;10.850;2022-09-21T02:18:56;3.53;;;1.90;;
22191;SDS011;11261;52.456;10.850;2022-09-21T02:21:36;3.22;;;1.55;;
22191;SDS011;11261;52.456;10.850;2022-09-21T02:24:12;3.17;;;1.83;;
22191;SDS011;11261;52.456;10.850;2022-09-21T02:26:49;2.30;;;1.55;;
22191;SDS011;11261;52.456;10.850;2022-09-21T02:29:24;3.72;;;1.90;;
22191;SDS011;11261;52.456;10.850;2022-09-21T02:32:01;7.55;;;1.75;;
22191;SDS011;11261;52.456;10.850;2022-09-21T02:34:33;2.35;;;1.48;;
22191;SDS011;11261;52.456;10.850;2022-09-21T02:37:14;3.08;;;1.50;;
22191;SDS011;11261;52.456;10.850;2022-09-21T02:39:51;4.32;;;2.17;;
22191;SDS011;11261;52.456;10.850;2022-09-21T02:42:25;3.30;;;1.70;;
22191;SDS011;11261;52.456;10.850;2022-09-21T02:44:57;1.50;;;1.40;;
22191;SDS011;11261;52.456;10.850;2022-09-21T02:47:33;4.53;;;1.27;;
22191;SDS011;11261;52.456;10.850;2022-09-21T02:50:06;4.20;;;1.80;;
22191;SDS011;11261;52.456;10.850;2022-09-21T02:52:40;3.75;;;1.80;;
22191;SDS011;11261;52.456;10.850;2022-09-21T02:55:10;2.30;;;1.95;;
22191;SDS011;11261;52.456;10.850;2022-09-21T02:57:41;3.50;;;1.73;;
22191;SDS011;11261;52.456;10.850;2022-09-21T03:00:11;5.28;;;2.38;;
22191;SDS011;11261;52.456;10.850;2022-09-21T03:02:42;3.25;;;1.83;;
22191;SDS011;11261;52.456;10.850;2022-09-21T03:05:12;3.13;;;2.30;;
22191;SDS011;11261;52.456;10.850;2022-09-21T03:07:41;3.33;;;2.03;;
22191;SDS011;11261;52.456;10.850;2022-09-21T03:10:09;7.45;;;2.47;;
22191;SDS011;11261;52.456;10.850;2022-09-21T03:12:37;4.72;;;2.10;;
22191;SDS011;11261;52.456;10.850;2022-09-21T03:15:05;3.60;;;2.30;;
22191;SDS011;11261;52.456;10.850;2022-09-21T03:17:34;7.32;;;2.55;;
22191;SDS011;11261;52.456;10.850;2022-09-21T03:20:03;5.70;;;2.58;;
22191;SDS011;11261;52.456;10.850;2022-09-21T03:22:33;4.80;;;2.60;;
22191;SDS011;11261;52.456;10.850;2022-09-21T03:25:01;5.93;;;2.55;;
22191;SDS011;11261;52.456;10.850;2022-09-21T03:27:29;5.38;;;3.25;;
22191;SDS011;11261;52.456;10.850;2022-09-21T03:29:57;4.53;;;2.45;;
22191;SDS011;11261;52.456;10.850;2022-09-21T03:32:27;7.80;;;2.95;;
22191;SDS011;11261;52.456;10.850;2022-09-21T03:34:56;2.72;;;1.90;;
22191;SDS011;11261;52.456;10.850;2022-09-21T03:37:26;2.88;;;2.28;;
22191;SDS011;11261;52.456;10.850;2022-09-21T03:39:55;4.80;;;2.50;;
22191;SDS011;11261;52.456;10.850;2022-09-21T03:42:23;4.40;;;2.72;;
22191;SDS011;11261;52.456;10.850;2022-09-21T03:44:51;5.15;;;2.92;;
22191;SDS011;11261;52.456;10.850;2022-09-21T03:47:19;6.65;;;3.13;;
22191;SDS011;11261;52.456;10.850;2022-09-21T03:49:47;4.25;;;2.63;;
22191;SDS011;11261;52.456;10.850;2022-09-21T03:52:15;6.03;;;2.90;;
22191;SDS011;11261;52.456;10.850;2022-09-21T03:54:45;4.85;;;3.28;;
22191;SDS011;11261;52.456;10.850;2022-09-21T03:57:13;5.63;;;3.47;;
22191;SDS011;11261;52.456;10.850;2022-09-21T03:59:41;5.80;;;2.40;;
22191;SDS011;11261;52.456;10.850;2022-09-21T04:02:09;5.53;;;3.50;;
22191;SDS011;11261;52.456;10.850;2022-09-21T04:04:37;5.55;;;3.42;;
22191;SDS011;11261;52.456;10.850;2022-09-21T04:07:05;8.13;;;3.83;;
22191;SDS011;11261;52.456;10.850;2022-09-21T04:09:33;6.45;;;3.95;;
22191;SDS011;11261;52.456;10.850;2022-09-21T04:12:02;8.98;;;4.00;;
22191;SDS011;11261;52.456;10.850;2022-09-21T04:14:31;6.47;;;3.50;;
22191;SDS011;11261;52.456;10.850;2022-09-21T04:16:59;6.35;;;3.40;;
22191;SDS011;11261;52.456;10.850;2022-09-21T04:19:27;7.10;;;4.43;;
22191;SDS011;11261;52.456;10.850;2022-09-21T04:21:55;6.72;;;4.10;;
22191;SDS011;11261;52.456;10.850;2022-09-21T04:24:23;6.55;;;4.15;;
22191;SDS011;11261;52.456;10.850;2022-09-21T04:26:52;5.38;;;3.22;;
22191;SDS011;11261;52.456;10.850;2022-09-21T04:29:21;8.15;;;3.58;;
22191;SDS011;11261;52.456;10.850;2022-09-21T04:31:49;7.00;;;4.07;;
22191;SDS011;11261;52.456;10.850;2022-09-21T04:34:17;6.78;;;3.80;;
22191;SDS011;11261;52.456;10.850;2022-09-21T04:36:46;8.98;;;4.25;;
22191;SDS011;11261;52.456;10.850;2022-09-21T04:39:14;6.53;;;3.40;;
22191;SDS011;11261;52.456;10.850;2022-09-21T04:41:42;7.32;;;3.17;;
22191;SDS011;11261;52.456;10.850;2022-09-21T04:44:10;7.40;;;4.05;;
22191;SDS011;11261;52.456;10.850;2022-09-21T04:46:40;9.07;;;3.97;;
22191;SDS011;11261;52.456;10.850;2022-09-21T04:49:08;5.85;;;3.70;;
22191;SDS011;11261;52.456;10.850;2022-09-21T04:51:37;7.05;;;4.07;;
22191;SDS011;11261;52.456;10.850;2022-09-21T04:54:05;7.07;;;3.65;;
22191;SDS011;11261;52.456;10.850;2022-09-21T04:56:33;5.32;;;3.80;;
22191;SDS011;11261;52.456;10.850;2022-09-21T04:59:01;4.20;;;3.10;;
22191;SDS011;11261;52.456;10.850;2022-09-21T05:01:30;4.40;;;2.75;;
22191;SDS011;11261;52.456;10.850;2022-09-21T05:03:59;4.97;;;3.20;;
22191;SDS011;11261;52.456;10.850;2022-09-21T05:06:28;5.68;;;3.08;;
22191;SDS011;11261;52.456;10.850;2022-09-21T05:08:56;6.43;;;3.45;;
22191;SDS011;11261;52.456;10.850;2022-09-21T05:11:43;5.68;;;3.50;;
22191;SDS011;11261;52.456;10.850;2022-09-21T05:14:11;5.82;;;3.05;;
22191;SDS011;11261;52.456;10.850;2022-09-21T05:16:39;4.00;;;2.75;;
22191;SDS011;11261;52.456;10.850;2022-09-21T05:19:09;3.80;;;2.38;;
22191;SDS011;11261;52.456;10.850;2022-09-21T05:21:37;4.15;;;2.65;;
22191;SDS011;11261;52.456;10.850;2022-09-21T05:24:05;5.35;;;2.85;;
22191;SDS011;11261;52.456;10.850;2022-09-21T05:26:34;5.32;;;3.10;;
22191;SDS011;11261;52.456;10.850;2022-09-21T05:29:02;5.43;;;3.38;;
22191;SDS011;11261;52.456;10.850;2022-09-21T05:31:34;5.63;;;3.33;;
22191;SDS011;11261;52.456;10.850;2022-09-21T05:34:14;5.20;;;3.15;;
22191;SDS011;11261;52.456;10.850;2022-09-21T05:36:52;4.40;;;2.53;;
22191;SDS011;11261;52.456;10.850;2022-09-21T05:39:25;4.00;;;3.15;;
22191;SDS011;11261;52.456;10.850;2022-09-21T05:41:54;6.18;;;3.25;;
22191;SDS011;11261;52.456;10.850;2022-09-21T05:44:22;4.03;;;2.72;;
22191;SDS011;11261;52.456;10.850;2022-09-21T05:46:53;4.18;;;2.30;;
22191;SDS011;11261;52.456;10.850;2022-09-21T05:49:29;3.47;;;2.63;;
22191;SDS011;11261;52.456;10.850;2022-09-21T05:52:06;5.10;;;3.28;;
22191;SDS011;11261;52.456;10.850;2022-09-21T05:54:47;5.85;;;4.32;;
22191;SDS011;11261;52.456;10.850;2022-09-21T05:57:25;4.63;;;3.10;;
22191;SDS011;11261;52.456;10.850;2022-09-21T06:00:05;4.03;;;3.10;;
22191;SDS011;11261;52.456;10.850;2022-09-21T06:02:49;4.63;;;3.10;;
22191;SDS011;11261;52.456;10.850;2022-09-21T06:05:33;5.43;;;3.20;;
22191;SDS011;11261;52.456;10.850;2022-09-21T06:08:01;7.03;;;3.80;;
22191;SDS011;11261;52.456;10.850;2022-09-21T06:10:32;3.67;;;2.75;;
22191;SDS011;11261;52.456;10.850;2022-09-21T06:13:02;6.25;;;3.90;;
22191;SDS011;11261;52.456;10.850;2022-09-21T06:15:30;4.45;;;2.92;;
22191;SDS011;11261;52.456;10.850;2022-09-21T06:18:03;5.63;;;3.72;;
22191;SDS011;11261;52.456;10.850;2022-09-21T06:20:34;5.47;;;3.92;;
22191;SDS011;11261;52.456;10.850;2022-09-21T06:23:02;4.00;;;2.53;;
22191;SDS011;11261;52.456;10.850;2022-09-21T06:25:30;4.32;;;2.88;;
22191;SDS011;11261;52.456;10.850;2022-09-21T06:28:00;4.82;;;3.13;;
22191;SDS011;11261;52.456;10.850;2022-09-21T06:30:29;3.95;;;2.80;;
22191;SDS011;11261;52.456;10.850;2022-09-21T06:33:00;7.13;;;3.50;;
22191;SDS011;11261;52.456;10.850;2022-09-21T06:35:29;5.00;;;3.03;;
22191;SDS011;11261;52.456;10.850;2022-09-21T06:38:00;5.47;;;3.72;;
22191;SDS011;11261;52.456;10.850;2022-09-21T06:40:30;5.53;;;3.30;;
22191;SDS011;11261;52.456;10.850;2022-09-21T06:42:59;4.40;;;3.10;;
22191;SDS011;11261;52.456;10.850;2022-09-21T06:45:29;6.85;;;3.40;;
22191;SDS011;11261;52.456;10.850;2022-09-21T06:47:57;3.85;;;2.95;;
22191;SDS011;11261;52.456;10.850;2022-09-21T06:50:26;3.05;;;2.33;;
22191;SDS011;11261;52.456;10.850;2022-09-21T06:52:54;5.15;;;2.72;;
22191;SDS011;11261;52.456;10.850;2022-09-21T06:55:23;4.65;;;3.33;;
22191;SDS011;11261;52.456;10.850;2022-09-21T06:57:51;4.95;;;3.08;;
22191;SDS011;11261;52.456;10.850;2022-09-21T07:00:22;3.30;;;2.65;;
22191;SDS011;11261;52.456;10.850;2022-09-21T07:02:50;3.75;;;3.15;;
22191;SDS011;11261;52.456;10.850;2022-09-21T07:05:18;4.80;;;2.63;;
22191;SDS011;11261;52.456;10.850;2022-09-21T07:07:46;3.50;;;2.67;;
22191;SDS011;11261;52.456;10.850;2022-09-21T07:10:19;3.65;;;2.88;;
22191;SDS011;11261;52.456;10.850;2022-09-21T07:12:48;3.70;;;2.53;;
22191;SDS011;11261;52.456;10.850;2022-09-21T07:15:19;3.88;;;2.72;;
22191;SDS011;11261;52.456;10.850;2022-09-21T07:17:47;5.18;;;3.38;;
22191;SDS011;11261;52.456;10.850;2022-09-21T07:20:17;4.72;;;3.33;;
22191;SDS011;11261;52.456;10.850;2022-09-21T07:22:46;4.20;;;2.85;;
22191;SDS011;11261;52.456;10.850;2022-09-21T07:25:15;4.05;;;3.10;;
22191;SDS011;11261;52.456;10.850;2022-09-21T07:27:43;7.32;;;3.03;;
22191;SDS011;11261;52.456;10.850;2022-09-21T07:30:14;4.03;;;2.45;;
22191;SDS011;11261;52.456;10.850;2022-09-21T07:32:43;3.45;;;2.42;;
22191;SDS011;11261;52.456;10.850;2022-09-21T07:35:11;5.15;;;2.83;;
22191;SDS011;11261;52.456;10.850;2022-09-21T07:37:39;5.22;;;3.33;;
22191;SDS011;11261;52.456;10.850;2022-09-21T07:40:07;3.20;;;2.75;;
22191;SDS011;11261;52.456;10.850;2022-09-21T07:42:36;4.78;;;3.13;;
22191;SDS011;11261;52.456;10.850;2022-09-21T07:45:05;4.07;;;2.95;;
22191;SDS011;11261;52.456;10.850;2022-09-21T07:47:35;4.93;;;3.53;;
22191;SDS011;11261;52.456;10.850;2022-09-21T07:50:04;4.45;;;3.55;;
22191;SDS011;11261;52.456;10.850;2022-09-21T07:52:33;4.32;;;3.05;;
22191;SDS011;11261;52.456;10.850;2022-09-21T07:55:01;5.25;;;2.90;;
22191;SDS011;11261;52.456;10.850;2022-09-21T07:57:29;5.03;;;3.55;;
22191;SDS011;11261;52.456;10.850;2022-09-21T08:00:15;4.57;;;3.60;;
22191;SDS011;11261;52.456;10.850;2022-09-21T08:02:44;6.05;;;3.53;;
22191;SDS011;11261;52.456;10.850;2022-09-21T08:05:14;6.28;;;4.68;;
22191;SDS011;11261;52.456;10.850;2022-09-21T08:07:42;6.90;;;4.72;;
22191;SDS011;11261;52.456;10.850;2022-09-21T08:10:10;8.07;;;4.22;;
22191;SDS011;11261;52.456;10.850;2022-09-21T08:12:38;6.40;;;4.22;;
22191;SDS011;11261;52.456;10.850;2022-09-21T08:15:07;7.43;;;4.20;;
22191;SDS011;11261;52.456;10.850;2022-09-21T08:18:01;5.85;;;4.10;;
22191;SDS011;11261;52.456;10.850;2022-09-21T08:20:32;5.40;;;3.70;;
22191;SDS011;11261;52.456;10.850;2022-09-21T08:23:01;5.85;;;4.00;;
22191;SDS011;11261;52.456;10.850;2022-09-21T08:25:30;5.10;;;3.40;;
22191;SDS011;11261;52.456;10.850;2022-09-21T08:27:59;5.90;;;3.45;;
22191;SDS011;11261;52.456;10.850;2022-09-21T08:30:34;6.35;;;4.15;;
22191;SDS011;11261;52.456;10.850;2022-09-21T08:33:04;5.63;;;3.47;;
22191;SDS011;11261;52.456;10.850;2022-09-21T08:35:33;7.50;;;3.38;;
22191;SDS011;11261;52.456;10.850;2022-09-21T08:38:02;8.18;;;4.05;;
22191;SDS011;11261;52.456;10.850;2022-09-21T08:40:31;6.88;;;4.03;;
22191;SDS011;11261;52.456;10.850;2022-09-21T08:43:00;5.95;;;3.28;;
22191;SDS011;11261;52.456;10.850;2022-09-21T08:45:32;10.40;;;3.72;;
22191;SDS011;11261;52.456;10.850;2022-09-21T08:48:07;8.30;;;3.75;;
22191;SDS011;11261;52.456;10.850;2022-09-21T08:50:43;5.20;;;3.33;;
22191;SDS011;11261;52.456;10.850;2022-09-21T08:53:16;7.03;;;2.80;;
22191;SDS011;11261;52.456;10.850;2022-09-21T08:55:49;4.70;;;3.10;;
22191;SDS011;11261;52.456;10.850;2022-09-21T08:58:19;7.10;;;3.00;;
22191;SDS011;11261;52.456;10.850;2022-09-21T09:00:51;4.05;;;2.60;;
22191;SDS011;11261;52.456;10.850;2022-09-21T09:06:30;3.55;;;2.67;;
22191;SDS011;11261;52.456;10.850;2022-09-21T09:09:11;3.38;;;2.15;;
22191;SDS011;11261;52.456;10.850;2022-09-21T09:11:52;2.97;;;2.03;;
22191;SDS011;11261;52.456;10.850;2022-09-21T09:14:37;4.38;;;2.70;;
22191;SDS011;11261;52.456;10.850;2022-09-21T09:17:26;3.78;;;2.38;;
22191;SDS011;11261;52.456;10.850;2022-09-21T09:20:06;3.90;;;2.00;;
22191;SDS011;11261;52.456;10.850;2022-09-21T09:22:41;4.13;;;1.80;;
22191;SDS011;11261;52.456;10.850;2022-09-21T09:25:15;4.18;;;2.47;;
22191;SDS011;11261;52.456;10.850;2022-09-21T09:27:47;3.33;;;2.03;;
22191;SDS011;11261;52.456;10.850;2022-09-21T09:30:20;2.65;;;1.75;;
22191;SDS011;11261;52.456;10.850;2022-09-21T09:32:53;2.83;;;1.70;;
22191;SDS011;11261;52.456;10.850;2022-09-21T09:35:30;1.83;;;1.20;;
22191;SDS011;11261;52.456;10.850;2022-09-21T09:38:04;2.22;;;1.60;;
22191;SDS011;11261;52.456;10.850;2022-09-21T09:40:50;4.15;;;2.70;;
22191;SDS011;11261;52.456;10.850;2022-09-21T09:43:30;4.38;;;1.85;;
22191;SDS011;11261;52.456;10.850;2022-09-21T09:46:10;3.83;;;1.75;;
22191;SDS011;11261;52.456;10.850;2022-09-21T09:48:48;1.55;;;1.27;;
22191;SDS011;11261;52.456;10.850;2022-09-21T09:51:40;2.90;;;1.45;;
22191;SDS011;11261;52.456;10.850;2022-09-21T09:54:11;3.00;;;1.00;;
22191;SDS011;11261;52.456;10.850;2022-09-21T09:56:41;3.40;;;0.90;;
22191;SDS011;11261;52.456;10.850;2022-09-21T09:59:11;1.65;;;1.20;;
22191;SDS011;11261;52.456;10.850;2022-09-21T10:01:46;4.07;;;1.30;;
22191;SDS011;11261;52.456;10.850;2022-09-21T10:04:26;3.70;;;1.10;;
22191;SDS011;11261;52.456;10.850;2022-09-21T10:06:56;1.67;;;0.90;;
22191;SDS011;11261;52.456;10.850;2022-09-21T10:09:25;1.90;;;0.95;;
22191;SDS011;11261;52.456;10.850;2022-09-21T10:11:55;2.83;;;1.00;;
22191;SDS011;11261;52.456;10.850;2022-09-21T10:14:26;1.08;;;0.65;;
22191;SDS011;11261;52.456;10.850;2022-09-21T10:17:00;2.42;;;0.93;;
22191;SDS011;11261;52.456;10.850;2022-09-21T10:19:32;1.70;;;0.70;;
22191;SDS011;11261;52.456;10.850;2022-09-21T10:22:02;1.25;;;0.60;;
22191;SDS011;11261;52.456;10.850;2022-09-21T10:24:33;0.88;;;0.50;;
22191;SDS011;11261;52.456;10.850;2022-09-21T10:27:05;2.75;;;0.75;;
22191;SDS011;11261;52.456;10.850;2022-09-21T10:29:39;0.73;;;0.50;;
22191;SDS011;11261;52.456;10.850;2022-09-21T10:32:19;1.02;;;0.70;;
22191;SDS011;11261;52.456;10.850;2022-09-21T10:34:59;1.05;;;0.50;;
22191;SDS011;11261;52.456;10.850;2022-09-21T10:37:45;0.75;;;0.40;;
22191;SDS011;11261;52.456;10.850;2022-09-21T10:40:22;3.13;;;0.70;;
22191;SDS011;11261;52.456;10.850;2022-09-21T10:42:53;1.08;;;0.63;;
22191;SDS011;11261;52.456;10.850;2022-09-21T10:45:24;0.70;;;0.63;;
22191;SDS011;11261;52.456;10.850;2022-09-21T10:47:55;0.52;;;0.50;;
22191;SDS011;11261;52.456;10.850;2022-09-21T10:50:26;0.50;;;0.40;;
22191;SDS011;11261;52.456;10.850;2022-09-21T10:53:01;1.35;;;0.57;;
22191;SDS011;11261;52.456;10.850;2022-09-21T10:55:46;0.88;;;0.60;;
22191;SDS011;11261;52.456;10.850;2022-09-21T10:58:39;0.90;;;0.50;;
22191;SDS011;11261;52.456;10.850;2022-09-21T11:01:41;0.90;;;0.50;;
22191;SDS011;11261;52.456;10.850;2022-09-21T11:04:11;1.42;;;0.43;;
22191;SDS011;11261;52.456;10.850;2022-09-21T11:06:45;2.35;;;0.60;;
22191;SDS011;11261;52.456;10.850;2022-09-21T11:09:19;0.52;;;0.32;;
22191;SDS011;11261;52.456;10.850;2022-09-21T11:11:53;0.70;;;0.50;;
22191;SDS011;11261;52.456;10.850;2022-09-21T11:14:34;0.50;;;0.50;;
22191;SDS011;11261;52.456;10.850;2022-09-21T11:17:11;0.85;;;0.47;;
22191;SDS011;11261;52.456;10.850;2022-09-21T11:19:46;0.98;;;0.38;;
22191;SDS011;11261;52.456;10.850;2022-09-21T11:22:21;1.80;;;0.40;;
22191;SDS011;11261;52.456;10.850;2022-09-21T11:25:00;0.98;;;0.50;;
22191;SDS011;11261;52.456;10.850;2022-09-21T11:27:33;0.50;;;0.50;;
22191;SDS011;11261;52.456;10.850;2022-09-21T11:30:08;0.98;;;0.50;;
22191;SDS011;11261;52.456;10.850;2022-09-21T11:32:47;0.47;;;0.40;;
22191;SDS011;11261;52.456;10.850;2022-09-21T11:35:43;1.20;;;0.40;;
22191;SDS011;11261;52.456;10.850;2022-09-21T11:38:18;0.52;;;0.45;;
22191;SDS011;11261;52.456;10.850;2022-09-21T11:41:04;1.60;;;0.52;;
22191;SDS011;11261;52.456;10.850;2022-09-21T11:43:56;0.60;;;0.50;;
22191;SDS011;11261;52.456;10.850;2022-09-21T11:46:41;0.65;;;0.50;;
22191;SDS011;11261;52.456;10.850;2022-09-21T11:49:23;1.05;;;0.50;;
22191;SDS011;11261;52.456;10.850;2022-09-21T11:52:08;0.70;;;0.43;;
22191;SDS011;11261;52.456;10.850;2022-09-21T11:55:06;0.65;;;0.55;;
22191;SDS011;11261;52.456;10.850;2022-09-21T11:57:57;0.40;;;0.40;;
22191;SDS011;11261;52.456;10.850;2022-09-21T12:00:32;1.80;;;0.60;;
22191;SDS011;11261;52.456;10.850;2022-09-21T12:06:15;0.68;;;0.50;;
22191;SDS011;11261;52.456;10.850;2022-09-21T12:08:55;0.65;;;0.40;;
22191;SDS011;11261;52.456;10.850;2022-09-21T12:11:38;0.52;;;0.40;;
22191;SDS011;11261;52.456;10.850;2022-09-21T12:14:14;0.50;;;0.43;;
22191;SDS011;11261;52.456;10.850;2022-09-21T12:16:51;0.60;;;0.40;;
22191;SDS011;11261;52.456;10.850;2022-09-21T12:19:27;2.67;;;0.60;;
22191;SDS011;11261;52.456;10.850;2022-09-21T12:22:08;0.77;;;0.60;;
22191;SDS011;11261;52.456;10.850;2022-09-21T12:24:41;0.93;;;0.50;;
22191;SDS011;11261;52.456;10.850;2022-09-21T12:27:14;1.67;;;0.60;;
22191;SDS011;11261;52.456;10.850;2022-09-21T12:29:54;1.75;;;0.55;;
22191;SDS011;11261;52.456;10.850;2022-09-21T12:32:27;0.82;;;0.45;;
22191;SDS011;11261;52.456;10.850;2022-09-21T12:35:13;1.73;;;0.47;;
22191;SDS011;11261;52.456;10.850;2022-09-21T12:37:45;0.63;;;0.50;;
22191;SDS011;11261;52.456;10.850;2022-09-21T12:40:19;0.68;;;0.40;;
22191;SDS011;11261;52.456;10.850;2022-09-21T12:42:55;1.75;;;0.43;;
22191;SDS011;11261;52.456;10.850;2022-09-21T12:45:31;1.65;;;0.40;;
22191;SDS011;11261;52.456;10.850;2022-09-21T12:48:04;1.20;;;0.40;;
22191;SDS011;11261;52.456;10.850;2022-09-21T12:50:38;1.88;;;0.45;;
22191;SDS011;11261;52.456;10.850;2022-09-21T12:53:11;1.20;;;0.50;;
22191;SDS011;11261;52.456;10.850;2022-09-21T12:55:47;0.43;;;0.28;;
22191;SDS011;11261;52.456;10.850;2022-09-21T12:58:29;0.90;;;0.50;;
22191;SDS011;11261;52.456;10.850;2022-09-21T13:01:07;0.70;;;0.45;;
22191;SDS011;11261;52.456;10.850;2022-09-21T13:03:48;0.88;;;0.52;;
22191;SDS011;11261;52.456;10.850;2022-09-21T13:06:37;1.23;;;0.50;;
22191;SDS011;11261;52.456;10.850;2022-09-21T13:09:21;1.27;;;0.50;;
22191;SDS011;11261;52.456;10.850;2022-09-21T13:11:51;1.25;;;0.32;;
22191;SDS011;11261;52.456;10.850;2022-09-21T13:14:22;1.58;;;0.40;;
22191;SDS011;11261;52.456;10.850;2022-09-21T13:16:54;0.30;;;0.30;;
22191;SDS011;11261;52.456;10.850;2022-09-21T13:19:26;0.85;;;0.50;;
22191;SDS011;11261;52.456;10.850;2022-09-21T13:22:09;1.98;;;0.50;;
22191;SDS011;11261;52.456;10.850;2022-09-21T13:24:45;0.30;;;0.30;;
22191;SDS011;11261;52.456;10.850;2022-09-21T13:30:28;1.10;;;0.52;;
22191;SDS011;11261;52.456;10.850;2022-09-21T13:36:10;0.60;;;0.50;;
22191;SDS011;11261;52.456;10.850;2022-09-21T13:39:03;0.47;;;0.40;;
22191;SDS011;11261;52.456;10.850;2022-09-21T13:41:42;1.92;;;0.60;;
22191;SDS011;11261;52.456;10.850;2022-09-21T13:44:41;0.98;;;0.50;;
22191;SDS011;11261;52.456;10.850;2022-09-21T13:47:11;0.40;;;0.40;;
22191;SDS011;11261;52.456;10.850;2022-09-21T13:49:51;3.92;;;0.60;;
22191;SDS011;11261;52.456;10.850;2022-09-21T13:55:21;1.77;;;0.50;;
22191;SDS011;11261;52.456;10.850;2022-09-21T13:57:51;1.83;;;0.40;;
22191;SDS011;11261;52.456;10.850;2022-09-21T14:00:32;0.50;;;0.50;;
22191;SDS011;11261;52.456;10.850;2022-09-21T14:03:05;0.70;;;0.40;;
22191;SDS011;11261;52.456;10.850;2022-09-21T14:05:48;1.42;;;0.40;;
22191;SDS011;11261;52.456;10.850;2022-09-21T14:08:24;1.23;;;0.50;;
22191;SDS011;11261;52.456;10.850;2022-09-21T14:10:57;1.33;;;0.50;;
22191;SDS011;11261;52.456;10.850;2022-09-21T14:13:29;0.93;;;0.50;;
22191;SDS011;11261;52.456;10.850;2022-09-21T14:22:33;0.63;;;0.50;;
22191;SDS011;11261;52.456;10.850;2022-09-21T14:27:59;0.88;;;0.40;;
22191;SDS011;11261;52.456;10.850;2022-09-21T14:30:35;0.50;;;0.50;;
22191;SDS011;11261;52.456;10.850;2022-09-21T14:33:19;0.60;;;0.50;;
22191;SDS011;11261;52.456;10.850;2022-09-21T14:35:51;1.85;;;0.45;;
22191;SDS011;11261;52.456;10.850;2022-09-21T14:38:23;0.43;;;0.40;;
22191;SDS011;11261;52.456;10.850;2022-09-21T14:40:56;0.95;;;0.40;;
22191;SDS011;11261;52.456;10.850;2022-09-21T14:43:28;1.48;;;0.60;;
22191;SDS011;11261;52.456;10.850;2022-09-21T14:46:10;0.25;;;0.25;;
22191;SDS011;11261;52.456;10.850;2022-09-21T14:48:54;1.92;;;0.47;;
22191;SDS011;11261;52.456;10.850;2022-09-21T14:51:37;0.70;;;0.60;;
22191;SDS011;11261;52.456;10.850;2022-09-21T14:54:28;1.10;;;0.45;;
22191;SDS011;11261;52.456;10.850;2022-09-21T14:57:12;0.63;;;0.40;;
22191;SDS011;11261;52.456;10.850;2022-09-21T14:59:55;1.20;;;0.45;;
22191;SDS011;11261;52.456;10.850;2022-09-21T15:02:33;0.50;;;0.40;;
22191;SDS011;11261;52.456;10.850;2022-09-21T15:05:04;0.45;;;0.43;;
22191;SDS011;11261;52.456;10.850;2022-09-21T15:07:46;0.40;;;0.30;;
22191;SDS011;11261;52.456;10.850;2022-09-21T15:10:44;0.93;;;0.40;;
22191;SDS011;11261;52.456;10.850;2022-09-21T15:16:19;1.00;;;0.30;;
22191;SDS011;11261;52.456;10.850;2022-09-21T15:19:11;1.38;;;0.47;;
22191;SDS011;11261;52.456;10.850;2022-09-21T15:21:48;0.60;;;0.40;;
22191;SDS011;11261;52.456;10.850;2022-09-21T15:24:19;1.65;;;0.40;;
22191;SDS011;11261;52.456;10.850;2022-09-21T15:26:52;0.88;;;0.50;;
22191;SDS011;11261;52.456;10.850;2022-09-21T15:29:28;1.52;;;0.50;;
22191;SDS011;11261;52.456;10.850;2022-09-21T15:31:58;0.52;;;0.52;;
22191;SDS011;11261;52.456;10.850;2022-09-21T15:34:26;0.60;;;0.47;;
22191;SDS011;11261;52.456;10.850;2022-09-21T15:37:04;0.75;;;0.60;;
22191;SDS011;11261;52.456;10.850;2022-09-21T15:39:34;1.55;;;0.45;;